createdAt,value
2022-08-05T00:02:27.801Z,99.90
2022-08-05T00:04:57.171Z,99.90
2022-08-05T00:07:59.683Z,99.90
2022-08-05T00:10:11.989Z,99.90
2022-08-05T00:12:48.461Z,99.90
2022-08-05T00:15:55.953Z,99.90
2022-08-05T00:20:08.891Z,99.90
2022-08-05T00:22:36.788Z,99.90
2022-08-05T00:25:04.705Z,99.90
2022-08-05T00:27:37.696Z,99.90
2022-08-05T00:30:11.434Z,99.90
2022-08-05T00:32:38.795Z,99.90
2022-08-05T00:35:10.273Z,99.90
2022-08-05T00:37:53.045Z,99.90
2022-08-05T00:40:28.308Z,99.90
2022-08-05T00:42:58.226Z,99.90
2022-08-05T00:45:38.015Z,99.90
2022-08-05T00:48:07.402Z,99.90
2022-08-05T00:50:36.030Z,99.90
2022-08-05T00:53:03.793Z,99.90
2022-08-05T00:55:42.468Z,99.90
2022-08-05T00:58:11.516Z,99.90
2022-08-05T01:00:40.333Z,99.90
2022-08-05T01:03:10.569Z,99.90
2022-08-05T01:05:51.441Z,99.90
2022-08-05T01:08:39.169Z,99.90
2022-08-05T01:11:11.291Z,99.90
2022-08-05T01:13:57.734Z,99.90
2022-08-05T01:16:32.060Z,99.90
2022-08-05T01:19:10.461Z,99.90
2022-08-05T01:22:15.402Z,99.90
2022-08-05T01:25:00.259Z,99.90
2022-08-05T01:27:55.130Z,99.90
2022-08-05T01:30:34.752Z,99.90
2022-08-05T01:33:03.632Z,99.90
2022-08-05T01:35:51.873Z,99.90
2022-08-05T01:38:26.856Z,99.90
2022-08-05T01:40:57.388Z,99.90
2022-08-05T01:43:27.633Z,99.90
2022-08-05T01:45:56.807Z,99.90
2022-08-05T01:48:24.067Z,99.90
2022-08-05T01:50:51.934Z,99.90
2022-08-05T01:53:56.898Z,99.90
2022-08-05T01:56:11.470Z,99.90
2022-08-05T01:58:44.906Z,99.90
2022-08-05T02:01:24.675Z,99.90
2022-08-05T02:03:55.541Z,99.90
2022-08-05T02:06:37.290Z,99.90
2022-08-05T02:09:05.907Z,99.90
2022-08-05T02:11:42.120Z,99.90
2022-08-05T02:14:14.201Z,99.90
2022-08-05T02:16:52.181Z,99.90
2022-08-05T02:19:23.985Z,99.90
2022-08-05T02:21:58.994Z,99.90
2022-08-05T02:27:10.243Z,99.90
2022-08-05T02:29:59.009Z,99.90
2022-08-05T02:32:29.434Z,99.90
2022-08-05T02:35:02.111Z,99.90
2022-08-05T02:37:41.285Z,99.90
2022-08-05T02:40:09.949Z,99.90
2022-08-05T02:42:43.775Z,99.90
2022-08-05T02:45:20.529Z,99.90
2022-08-05T02:48:06.878Z,99.90
2022-08-05T02:50:44.044Z,99.90
2022-08-05T02:53:16.063Z,99.90
2022-08-05T02:55:53.736Z,99.90
2022-08-05T02:58:26.728Z,99.90
2022-08-05T03:00:56.605Z,99.90
2022-08-05T03:03:23.857Z,99.90
2022-08-05T03:06:56.653Z,99.90
2022-08-05T03:08:42.547Z,99.90
2022-08-05T03:11:55.999Z,99.90
2022-08-05T03:14:08.488Z,99.90
2022-08-05T03:16:36.981Z,99.90
2022-08-05T03:19:12.837Z,99.90
2022-08-05T03:21:49.564Z,99.90
2022-08-05T03:24:17.314Z,99.90
2022-08-05T03:26:49.299Z,99.90
2022-08-05T03:29:17.863Z,99.90
2022-08-05T03:31:57.262Z,99.90
2022-08-05T03:34:28.742Z,99.90
2022-08-05T03:36:56.099Z,99.90
2022-08-05T03:39:27.281Z,99.90
2022-08-05T03:41:56.256Z,99.90
2022-08-05T03:44:25.344Z,99.90
2022-08-05T03:46:56.381Z,99.90
2022-08-05T03:49:24.243Z,99.90
2022-08-05T03:52:48.367Z,99.90
2022-08-05T03:55:07.096Z,99.90
2022-08-05T03:57:45.525Z,99.90
2022-08-05T04:00:16.989Z,99.90
2022-08-05T04:02:52.061Z,99.90
2022-08-05T04:05:26.056Z,99.90
2022-08-05T04:09:58.524Z,99.90
2022-08-05T04:12:31.514Z,99.90
2022-08-05T04:14:59.971Z,99.90
2022-08-05T04:17:36.463Z,99.90
2022-08-05T04:20:19.910Z,99.90
2022-08-05T04:22:47.116Z,99.90
2022-08-05T04:25:17.797Z,99.90
2022-08-05T04:27:57.270Z,99.90
2022-08-05T04:30:26.601Z,99.90
2022-08-05T04:32:53.789Z,99.90
2022-08-05T04:35:20.934Z,99.90
2022-08-05T04:38:02.323Z,99.90
2022-08-05T04:40:35.729Z,99.90
2022-08-05T04:43:03.967Z,99.90
2022-08-05T04:46:05.054Z,99.90
2022-08-05T04:48:32.372Z,99.90
2022-08-05T04:51:03.351Z,99.90
2022-08-05T04:53:39.264Z,99.90
2022-08-05T04:56:15.109Z,99.90
2022-08-05T04:58:54.272Z,99.90
2022-08-05T05:01:33.828Z,99.90
2022-08-05T05:04:09.694Z,99.90
2022-08-05T05:06:44.936Z,99.90
2022-08-05T05:09:17.720Z,99.90
2022-08-05T05:15:11.251Z,99.90
2022-08-05T05:17:56.497Z,99.90
2022-08-05T05:21:09.487Z,99.90
2022-08-05T05:23:39.523Z,99.90
2022-08-05T05:26:28.656Z,99.90
2022-08-05T05:29:00.730Z,99.90
2022-08-05T05:31:35.893Z,99.90
2022-08-05T05:33:59.338Z,99.90
2022-08-05T05:36:28.767Z,99.90
2022-08-05T05:38:57.259Z,99.90
2022-08-05T05:41:24.559Z,99.90
2022-08-05T05:43:58.071Z,99.90
2022-08-05T05:46:27.476Z,99.90
2022-08-05T05:48:54.598Z,99.90
2022-08-05T05:51:22.224Z,99.90
2022-08-05T05:53:57.205Z,99.90
2022-08-05T05:56:26.114Z,99.90
2022-08-05T05:59:03.590Z,99.90
2022-08-05T06:01:37.129Z,99.90
2022-08-05T06:04:07.538Z,99.90
2022-08-05T06:06:35.398Z,99.90
2022-08-05T06:09:04.414Z,99.90
2022-08-05T06:11:31.671Z,99.90
2022-08-05T06:14:00.453Z,99.80
2022-08-05T06:16:32.708Z,98.30
2022-08-05T06:19:01.211Z,97.70
2022-08-05T06:21:36.867Z,97.20
2022-08-05T06:24:12.159Z,97.20
2022-08-05T06:26:40.133Z,97.00
2022-08-05T06:29:42.965Z,97.40
2022-08-05T06:32:20.872Z,98.10
2022-08-05T06:34:53.476Z,96.80
2022-08-05T06:37:55.918Z,94.90
2022-08-05T06:40:11.777Z,94.70
2022-08-05T06:42:39.824Z,94.70
2022-08-05T06:45:09.460Z,93.80
2022-08-05T06:48:37.317Z,94.60
2022-08-05T06:50:26.614Z,94.90
2022-08-05T06:52:58.424Z,93.50
2022-08-05T06:55:36.588Z,93.50
2022-08-05T06:58:30.004Z,94.10
2022-08-05T07:00:50.801Z,95.20
2022-08-05T07:03:17.928Z,96.00
2022-08-05T07:05:46.435Z,96.70
2022-08-05T07:08:13.554Z,95.80
2022-08-05T07:10:53.151Z,95.80
2022-08-05T07:13:57.913Z,95.50
2022-08-05T07:18:00.996Z,94.90
2022-08-05T07:22:28.116Z,93.70
2022-08-05T07:24:57.469Z,93.60
2022-08-05T07:27:27.213Z,93.90
2022-08-05T07:30:24.007Z,92.70
2022-08-05T07:32:55.226Z,91.10
2022-08-05T07:35:55.674Z,91.50
2022-08-05T07:38:25.385Z,90.10
2022-08-05T07:41:04.454Z,87.50
2022-08-05T07:43:48.168Z,84.50
2022-08-05T07:46:25.100Z,86.00
2022-08-05T07:51:54.309Z,86.80
2022-08-05T07:54:30.704Z,85.80
2022-08-05T07:57:41.996Z,85.50
2022-08-05T07:59:49.131Z,86.20
2022-08-05T08:02:17.897Z,85.50
2022-08-05T08:04:47.306Z,86.40
2022-08-05T08:07:16.454Z,86.10
2022-08-05T08:09:45.244Z,87.90
2022-08-05T08:12:35.485Z,88.40
2022-08-05T08:15:03.542Z,88.10
2022-08-05T08:17:31.957Z,89.60
2022-08-05T08:20:21.789Z,88.60
2022-08-05T08:22:53.443Z,89.40
2022-08-05T08:25:26.762Z,86.80
2022-08-05T08:28:11.365Z,83.80
2022-08-05T08:30:49.504Z,83.60
2022-08-05T08:33:17.624Z,83.80
2022-08-05T08:35:53.749Z,81.70
2022-08-05T08:38:35.858Z,77.80
2022-08-05T08:41:07.393Z,74.10
2022-08-05T08:45:20.003Z,73.60
2022-08-05T08:46:23.960Z,70.50
2022-08-05T08:49:04.938Z,73.60
2022-08-05T08:52:03.171Z,74.50
2022-08-05T08:54:27.652Z,71.90
2022-08-05T08:57:00.058Z,73.80
2022-08-05T08:59:33.388Z,65.00
2022-08-05T09:02:01.340Z,64.30
2022-08-05T09:04:30.448Z,65.30
2022-08-05T09:06:58.430Z,63.30
2022-08-05T09:09:34.641Z,61.10
2022-08-05T09:12:19.953Z,60.90
2022-08-05T09:14:58.375Z,60.90
2022-08-05T09:17:42.733Z,61.30
2022-08-05T09:20:20.909Z,58.40
2022-08-05T09:23:19.656Z,58.30
2022-08-05T09:26:02.328Z,57.90
2022-08-05T09:28:37.765Z,57.50
2022-08-05T09:31:43.466Z,60.50
2022-08-05T09:33:56.203Z,57.80
2022-08-05T09:36:27.442Z,56.50
2022-08-05T09:39:02.417Z,55.10
2022-08-05T09:41:32.881Z,54.30
2022-08-05T09:44:05.551Z,56.80
2022-08-05T09:46:34.942Z,53.50
2022-08-05T09:49:19.498Z,54.80
2022-08-05T09:51:48.846Z,55.70
2022-08-05T09:54:28.925Z,56.20
2022-08-05T09:57:01.590Z,55.90
2022-08-05T09:59:29.513Z,56.20
2022-08-05T10:02:02.293Z,55.40
2022-08-05T10:04:38.562Z,53.20
2022-08-05T10:07:20.366Z,53.90
2022-08-05T10:10:13.848Z,53.20
2022-08-05T10:12:49.324Z,55.10
2022-08-05T10:15:21.869Z,55.10
2022-08-05T10:18:07.097Z,55.80
2022-08-05T10:20:38.590Z,55.90
2022-08-05T10:23:05.663Z,55.20
2022-08-05T10:25:49.308Z,56.10
2022-08-05T10:28:29.161Z,55.30
2022-08-05T10:32:48.259Z,55.40
2022-08-05T10:33:52.432Z,54.50
2022-08-05T10:36:23.417Z,54.60
2022-08-05T10:38:58.426Z,53.80
2022-08-05T10:41:45.322Z,52.90
2022-08-05T10:44:18.168Z,53.00
2022-08-05T10:46:46.055Z,52.40
2022-08-05T10:49:18.524Z,55.40
2022-08-05T10:52:03.329Z,52.50
2022-08-05T10:55:01.825Z,52.10
2022-08-05T10:57:33.747Z,50.30
2022-08-05T11:00:20.459Z,51.20
2022-08-05T11:03:23.890Z,52.00
2022-08-05T11:06:15.674Z,53.10
2022-08-05T11:09:16.588Z,53.90
2022-08-05T11:11:53.318Z,54.90
2022-08-05T11:14:49.479Z,55.20
2022-08-05T11:17:58.205Z,56.30
2022-08-05T11:20:34.367Z,56.50
2022-08-05T11:23:22.039Z,55.00
2022-08-05T11:26:08.859Z,55.70
2022-08-05T11:28:47.193Z,56.50
2022-08-05T11:31:58.537Z,53.20
2022-08-05T11:34:36.840Z,51.90
2022-08-05T11:37:06.213Z,51.90
2022-08-05T11:40:00.340Z,52.60
2022-08-05T11:42:32.196Z,53.10
2022-08-05T11:45:05.242Z,48.70
2022-08-05T11:47:49.974Z,51.60
2022-08-05T11:50:19.793Z,52.20
2022-08-05T11:52:53.164Z,52.20
2022-08-05T11:55:32.076Z,50.10
2022-08-05T11:58:10.386Z,49.40
2022-08-05T12:00:39.087Z,51.50
2022-08-05T12:03:29.076Z,49.70
2022-08-05T12:06:01.596Z,49.30
2022-08-05T12:08:31.539Z,50.70
2022-08-05T12:11:05.473Z,49.60
2022-08-05T12:13:49.084Z,49.50
2022-08-05T12:16:25.424Z,50.60
2022-08-05T12:18:54.634Z,49.40
2022-08-05T12:21:26.990Z,48.50
2022-08-05T12:24:04.505Z,47.40
2022-08-05T12:26:33.271Z,46.00
2022-08-05T12:29:01.453Z,47.50
2022-08-05T12:31:42.387Z,47.90
2022-08-05T12:34:21.389Z,49.50
2022-08-05T12:36:53.436Z,51.30
2022-08-05T12:39:21.665Z,50.50
2022-08-05T12:41:50.785Z,50.70
2022-08-05T12:44:33.098Z,49.50
2022-08-05T12:47:02.319Z,48.90
2022-08-05T12:50:04.622Z,49.20
2022-08-05T12:52:35.350Z,47.30
2022-08-05T12:55:23.922Z,48.90
2022-08-05T12:58:49.789Z,48.80
2022-08-05T13:01:59.783Z,49.50
2022-08-05T13:03:31.915Z,49.50
2022-08-05T13:06:01.039Z,49.30
2022-08-05T13:08:32.417Z,47.60
2022-08-05T13:11:00.826Z,48.00
2022-08-05T13:14:06.516Z,48.00
2022-08-05T13:16:17.011Z,49.20
2022-08-05T13:18:51.480Z,48.60
2022-08-05T13:21:18.734Z,46.90
2022-08-05T13:23:50.918Z,48.50
2022-08-05T13:26:21.842Z,48.10
2022-08-05T13:28:57.342Z,46.70
2022-08-05T13:31:33.857Z,50.00
2022-08-05T13:34:25.026Z,47.00
2022-08-05T13:36:53.574Z,47.80
2022-08-05T13:39:24.661Z,49.60
2022-08-05T13:42:14.364Z,47.60
2022-08-05T13:44:45.519Z,47.50
2022-08-05T13:47:34.724Z,47.30
2022-08-05T13:50:01.193Z,51.50
2022-08-05T13:52:35.282Z,48.40
2022-08-05T13:55:07.603Z,50.00
2022-08-05T13:57:50.719Z,49.60
2022-08-05T14:00:26.903Z,50.10
2022-08-05T14:02:55.887Z,51.30
2022-08-05T14:05:48.287Z,51.70
2022-08-05T14:08:20.292Z,52.00
2022-08-05T14:10:50.047Z,54.60
2022-08-05T14:13:17.369Z,53.60
2022-08-05T14:16:04.465Z,53.50
2022-08-05T14:18:34.402Z,54.10
2022-08-05T14:22:07.325Z,55.00
2022-08-05T14:23:53.230Z,56.00
2022-08-05T14:26:36.192Z,56.00
2022-08-05T14:29:07.561Z,59.00
2022-08-05T14:32:03.541Z,57.70
2022-08-05T14:34:35.099Z,56.70
2022-08-05T14:37:02.652Z,57.80
2022-08-05T14:39:29.941Z,58.80
2022-08-05T14:42:20.781Z,59.10
2022-08-05T14:44:51.411Z,58.30
2022-08-05T14:47:23.948Z,58.20
2022-08-05T14:50:17.694Z,56.80
2022-08-05T14:52:58.726Z,55.40
2022-08-05T14:55:38.560Z,54.50
2022-08-05T14:58:12.059Z,53.40
2022-08-05T15:00:59.081Z,52.90
2022-08-05T15:03:33.257Z,53.30
2022-08-05T15:06:08.098Z,52.60
2022-08-05T15:09:01.210Z,52.00
2022-08-05T15:11:51.275Z,51.60
2022-08-05T15:14:20.085Z,52.80
2022-08-05T15:17:04.148Z,53.50
2022-08-05T15:19:32.912Z,50.70
2022-08-05T15:22:01.303Z,51.10
2022-08-05T15:24:28.912Z,50.80
2022-08-05T15:26:57.018Z,50.20
2022-08-05T15:29:30.154Z,49.70
2022-08-05T15:32:03.372Z,50.70
2022-08-05T15:34:33.812Z,51.50
2022-08-05T15:37:06.203Z,52.50
2022-08-05T15:41:00.102Z,54.50
2022-08-05T15:42:50.370Z,54.10
2022-08-05T15:45:11.455Z,54.20
2022-08-05T15:47:38.386Z,54.40
2022-08-05T15:50:06.240Z,55.80
2022-08-05T15:52:52.933Z,55.20
2022-08-05T15:55:24.466Z,55.40
2022-08-05T15:57:52.298Z,55.20
2022-08-05T16:00:26.460Z,55.60
2022-08-05T16:02:58.097Z,54.70
2022-08-05T16:05:28.499Z,54.30
2022-08-05T16:07:55.761Z,55.30
2022-08-05T16:10:25.512Z,54.80
2022-08-05T16:12:55.914Z,54.90
2022-08-05T16:15:25.392Z,55.60
2022-08-05T16:17:59.842Z,56.80
2022-08-05T16:20:27.801Z,57.70
2022-08-05T16:22:55.472Z,58.10
2022-08-05T16:25:32.254Z,58.70
2022-08-05T16:28:05.469Z,59.30
2022-08-05T16:30:36.192Z,58.60
2022-08-05T16:33:03.661Z,59.40
2022-08-05T16:35:33.603Z,59.90
2022-08-05T16:38:23.951Z,58.60
2022-08-05T16:40:59.885Z,57.70
2022-08-05T16:43:30.571Z,57.50
2022-08-05T16:46:03.673Z,56.60
2022-08-05T16:48:38.388Z,54.70
2022-08-05T16:51:10.024Z,54.30
2022-08-05T16:54:05.178Z,55.10
2022-08-05T16:56:27.430Z,54.60
2022-08-05T16:58:54.495Z,54.40
2022-08-05T17:01:24.349Z,53.40
2022-08-05T17:03:52.108Z,53.50
2022-08-05T17:06:19.445Z,53.80
2022-08-05T17:08:53.133Z,52.80
2022-08-05T17:11:23.961Z,52.60
2022-08-05T17:13:54.730Z,53.50
2022-08-05T17:16:36.505Z,54.30
2022-08-05T17:19:07.491Z,53.90
2022-08-05T17:21:36.768Z,54.90
2022-08-05T17:24:18.628Z,55.50
2022-08-05T17:26:52.611Z,55.30
2022-08-05T17:29:22.469Z,55.80
2022-08-05T17:35:20.845Z,54.90
2022-08-05T17:37:48.435Z,55.20
2022-08-05T17:40:17.897Z,55.40
2022-08-05T17:42:50.847Z,55.60
2022-08-05T17:45:21.168Z,55.70
2022-08-05T17:47:53.839Z,56.00
2022-08-05T17:50:28.020Z,56.00
2022-08-05T17:52:57.589Z,55.90
2022-08-05T17:55:27.275Z,56.30
2022-08-05T17:58:02.444Z,55.90
2022-08-05T18:00:30.174Z,56.40
2022-08-05T18:02:58.101Z,56.00
2022-08-05T18:05:27.965Z,56.60
2022-08-05T18:07:56.834Z,56.60
2022-08-05T18:10:24.291Z,56.80
2022-08-05T18:12:51.608Z,57.10
2022-08-05T18:15:19.330Z,57.90
2022-08-05T18:17:58.926Z,59.30
2022-08-05T18:20:32.408Z,59.60
2022-08-05T18:23:00.599Z,62.90
2022-08-05T18:25:38.912Z,62.70
2022-08-05T18:28:06.702Z,62.20
2022-08-05T18:30:34.330Z,62.50
2022-08-05T18:33:01.968Z,64.10
2022-08-05T18:35:50.039Z,64.20
2022-08-05T18:38:19.061Z,65.10
2022-08-05T18:41:53.397Z,65.40
2022-08-05T18:43:37.970Z,66.10
2022-08-05T18:46:10.199Z,66.90
2022-08-05T18:48:41.731Z,68.50
2022-08-05T18:52:06.205Z,68.50
2022-08-05T18:54:16.237Z,68.90
2022-08-05T18:56:51.302Z,68.70
2022-08-05T18:59:42.752Z,68.80
2022-08-05T19:02:26.847Z,70.80
2022-08-05T19:05:02.337Z,70.90
2022-08-05T19:07:46.123Z,71.10
2022-08-05T19:10:15.400Z,70.70
2022-08-05T19:12:43.207Z,71.00
2022-08-05T19:15:56.884Z,71.10
2022-08-05T19:18:08.426Z,71.30
2022-08-05T19:20:41.617Z,71.70
2022-08-05T19:24:04.351Z,71.90
2022-08-05T19:26:01.992Z,71.20
2022-08-05T19:28:30.331Z,71.90
2022-08-05T19:30:57.590Z,72.00
2022-08-05T19:33:35.696Z,72.50
2022-08-05T19:36:05.988Z,72.50
2022-08-05T19:38:35.728Z,73.00
2022-08-05T19:41:06.973Z,73.10
2022-08-05T19:44:05.940Z,73.00
2022-08-05T19:46:30.221Z,73.60
2022-08-05T19:49:03.348Z,74.20
2022-08-05T19:52:05.206Z,74.40
2022-08-05T19:54:26.857Z,74.80
2022-08-05T19:57:02.325Z,74.50
2022-08-05T19:59:56.005Z,74.40
2022-08-05T20:02:18.881Z,74.50
2022-08-05T20:04:48.368Z,74.50
2022-08-05T20:07:15.773Z,74.20
2022-08-05T20:10:11.493Z,75.00
2022-08-05T20:12:48.371Z,75.00
2022-08-05T20:15:23.002Z,75.10
2022-08-05T20:18:10.412Z,75.50
2022-08-05T20:20:51.738Z,75.20
2022-08-05T20:23:22.247Z,75.60
2022-08-05T20:25:49.446Z,77.10
2022-08-05T20:28:21.036Z,76.70
2022-08-05T20:30:49.673Z,76.40
2022-08-05T20:33:17.317Z,76.40
2022-08-05T20:35:48.492Z,76.40
2022-08-05T20:38:22.615Z,76.20
2022-08-05T20:40:55.391Z,76.90
2022-08-05T20:43:57.919Z,77.00
2022-08-05T20:46:18.485Z,76.90
2022-08-05T20:48:52.329Z,76.90
2022-08-05T20:51:19.455Z,77.10
2022-08-05T20:53:55.090Z,77.40
2022-08-05T20:56:27.683Z,77.80
2022-08-05T20:59:00.087Z,77.40
2022-08-05T21:01:41.103Z,77.90
2022-08-05T21:04:10.333Z,78.40
2022-08-05T21:06:37.796Z,79.00
2022-08-05T21:09:12.636Z,79.40
2022-08-05T21:12:09.396Z,79.40
2022-08-05T21:14:31.439Z,80.00
2022-08-05T21:17:02.922Z,80.80
2022-08-05T21:19:47.107Z,81.40
2022-08-05T21:22:17.611Z,82.00
2022-08-05T21:24:48.840Z,82.60
2022-08-05T21:27:18.505Z,83.60
2022-08-05T21:29:50.891Z,84.00
2022-08-05T21:32:20.192Z,85.10
2022-08-05T21:35:08.662Z,85.50
2022-08-05T21:37:35.043Z,85.20
2022-08-05T21:40:13.672Z,85.60
2022-08-05T21:42:45.245Z,85.90
2022-08-05T21:45:24.304Z,86.10
2022-08-05T21:47:55.958Z,86.50
2022-08-05T21:50:25.078Z,86.20
2022-08-05T21:52:52.263Z,86.00
2022-08-05T21:56:01.315Z,86.30
2022-08-05T21:58:10.513Z,87.20
2022-08-05T22:00:41.171Z,87.20
2022-08-05T22:03:18.431Z,87.20
2022-08-05T22:06:06.325Z,88.00
2022-08-05T22:08:35.543Z,88.30
2022-08-05T22:11:02.969Z,88.80
2022-08-05T22:14:06.649Z,88.70
2022-08-05T22:16:42.032Z,88.60
2022-08-05T22:19:56.169Z,89.10
2022-08-05T22:21:56.172Z,89.20
2022-08-05T22:24:51.864Z,89.20
2022-08-05T22:28:09.152Z,89.60
2022-08-05T22:30:32.425Z,89.90
2022-08-05T22:33:15.657Z,89.60
2022-08-05T22:35:49.150Z,90.00
2022-08-05T22:38:16.635Z,90.00
2022-08-05T22:40:50.004Z,90.10
2022-08-05T22:43:36.674Z,90.20
2022-08-05T22:46:11.896Z,90.50
2022-08-05T22:48:43.164Z,90.80
2022-08-05T22:51:22.443Z,91.40
2022-08-05T22:53:50.863Z,91.60
2022-08-05T22:56:30.337Z,91.80
2022-08-05T22:59:00.022Z,92.00
2022-08-05T23:02:04.733Z,92.30
2022-08-05T23:04:18.777Z,92.50
2022-08-05T23:06:47.771Z,92.70
2022-08-05T23:09:52.561Z,92.80
2022-08-05T23:12:02.749Z,92.90
2022-08-05T23:14:32.316Z,92.70
2022-08-05T23:17:24.251Z,92.90
2022-08-05T23:20:02.430Z,93.20
2022-08-05T23:22:30.857Z,93.20
2022-08-05T23:24:58.609Z,93.50
2022-08-05T23:27:28.854Z,93.60
2022-08-05T23:30:00.953Z,93.70
2022-08-05T23:32:28.567Z,94.00
2022-08-05T23:34:56.532Z,94.20
2022-08-05T23:37:26.630Z,94.80
2022-08-05T23:40:01.574Z,95.00
2022-08-05T23:42:37.335Z,95.30
2022-08-05T23:45:05.412Z,95.50
2022-08-05T23:47:47.773Z,95.70
2022-08-05T23:50:15.130Z,95.80
2022-08-05T23:52:49.865Z,96.10
2022-08-05T23:55:18.997Z,96.20
2022-08-05T23:57:49.009Z,96.20
